Hoopa, California
Current Conditions -  °F | °C
As of 2:32 AM on Saturday 25 Oct 2014 (Local Time) from KACV Reporting Station
Moderate Rain Moderate Rain  
Wind Chill: 57°   Ceiling: 3000
Heat Index: 57°   Visibility: 3mi
Dew Point: 56°   Wind: 14mph
Humidity: 96%   Direction: 190°S
Pressure: 29.65"   Gusts: NA
Location:  41.05°N, 123.68°W
Report Text: KACV 250932Z AUTO 19012KT 3SM RA BR FEW005 SCT015 OVC030 14/13 A2965 RMK AO2 PK WND 22031/0904 RAB0854 P0009 T01390133
Loading
Personal Weather Stations






























Interactive Weather Map
Tropical Storm Tracking
New forecast layout! Learn more

10-Day Weather Forecast

Advertisements
Track Severe Weather on mobile